createdAt,value
2023-03-04T00:00:46.333Z,86.27
2023-03-04T00:01:50.493Z,86.51
2023-03-04T00:02:52.281Z,86.47
2023-03-04T00:03:55.094Z,86.73
2023-03-04T00:04:57.358Z,86.46
2023-03-04T00:06:00.248Z,86.75
2023-03-04T00:07:03.467Z,86.58
2023-03-04T00:08:07.003Z,86.42
2023-03-04T00:09:08.791Z,86.37
2023-03-04T00:10:12.905Z,86.40
2023-03-04T00:11:14.797Z,86.41
2023-03-04T00:12:17.638Z,86.60
2023-03-04T00:13:21.108Z,86.48
2023-03-04T00:14:42.356Z,86.68
2023-03-04T00:15:44.287Z,86.53
2023-03-04T00:16:49.069Z,86.30
2023-03-04T00:17:50.844Z,86.48
2023-03-04T00:18:53.942Z,86.42
2023-03-04T00:19:56.183Z,86.49
2023-03-04T00:20:58.964Z,86.22
2023-03-04T00:22:01.058Z,86.34
2023-03-04T00:23:05.378Z,86.16
2023-03-04T00:24:08.002Z,86.11
2023-03-04T00:25:10.967Z,85.91
2023-03-04T00:26:13.437Z,85.97
2023-03-04T00:27:18.046Z,86.24
2023-03-04T00:28:19.943Z,86.44
2023-03-04T00:29:23.049Z,86.33
2023-03-04T00:30:25.314Z,86.32
2023-03-04T00:31:28.699Z,86.78
2023-03-04T00:32:30.487Z,86.65
2023-03-04T00:33:33.279Z,86.84
2023-03-04T00:34:35.092Z,86.88
2023-03-04T00:35:38.077Z,86.46
2023-03-04T00:36:40.140Z,86.35
2023-03-04T00:37:43.333Z,86.40
2023-03-04T00:38:46.458Z,86.42
2023-03-04T00:39:49.209Z,86.35
2023-03-04T00:40:51.056Z,86.80
2023-03-04T00:41:53.814Z,86.40
2023-03-04T00:42:55.578Z,86.80
2023-03-04T00:43:58.384Z,86.38
2023-03-04T00:45:00.184Z,86.45
2023-03-04T00:46:03.054Z,86.71
2023-03-04T00:47:05.292Z,86.38
2023-03-04T00:48:08.217Z,86.55
2023-03-04T00:49:10.001Z,86.72
2023-03-04T00:50:13.204Z,86.67
2023-03-04T00:51:14.932Z,86.83
2023-03-04T00:52:17.692Z,86.87
2023-03-04T00:53:19.632Z,86.88
2023-03-04T00:54:23.710Z,86.89
2023-03-04T00:55:25.989Z,87.03
2023-03-04T00:56:28.950Z,87.22
2023-03-04T00:57:30.711Z,87.01
2023-03-04T00:58:33.474Z,87.09
2023-03-04T00:59:36.690Z,86.97
2023-03-04T01:00:38.736Z,87.01
2023-03-04T01:01:41.693Z,87.04
2023-03-04T01:02:43.675Z,87.05
2023-03-04T01:03:46.440Z,87.17
2023-03-04T01:04:48.228Z,87.01
2023-03-04T01:05:51.660Z,87.03
2023-03-04T01:06:53.491Z,86.78
2023-03-04T01:07:56.571Z,86.71
2023-03-04T01:08:58.877Z,86.80
2023-03-04T01:10:02.993Z,87.06
2023-03-04T01:11:05.153Z,87.02
2023-03-04T01:12:08.508Z,87.04
2023-03-04T01:13:10.348Z,87.18
2023-03-04T01:14:13.097Z,87.19
2023-03-04T01:15:15.424Z,87.11
2023-03-04T01:16:18.211Z,87.00
2023-03-04T01:17:20.122Z,87.17
2023-03-04T01:18:24.501Z,87.25
2023-03-04T01:19:26.401Z,87.31
2023-03-04T01:20:29.202Z,87.21
2023-03-04T01:21:31.288Z,87.30
2023-03-04T01:22:34.479Z,87.19
2023-03-04T01:23:37.331Z,87.50
2023-03-04T01:24:39.229Z,87.32
2023-03-04T01:25:43.673Z,87.24
2023-03-04T01:26:45.478Z,87.66
2023-03-04T01:27:48.385Z,87.51
2023-03-04T01:28:50.315Z,87.45
2023-03-04T01:29:53.122Z,87.71
2023-03-04T01:30:55.354Z,87.53
2023-03-04T01:31:59.796Z,87.53
2023-03-04T01:33:01.611Z,87.25
2023-03-04T01:34:04.492Z,87.47
2023-03-04T01:35:07.354Z,87.42
2023-03-04T01:36:10.121Z,87.25
2023-03-04T01:37:13.678Z,87.16
2023-03-04T01:38:16.407Z,87.34
2023-03-04T01:39:18.279Z,87.49
2023-03-04T01:40:21.544Z,87.56
2023-03-04T01:41:26.028Z,87.42
2023-03-04T01:42:30.831Z,87.51
2023-03-04T01:43:34.184Z,87.04
2023-03-04T01:44:36.025Z,87.31
2023-03-04T01:45:40.293Z,87.64
2023-03-04T01:46:47.567Z,87.44
2023-03-04T01:47:51.200Z,87.29
2023-03-04T01:48:53.046Z,87.44
2023-03-04T01:49:57.951Z,87.51
2023-03-04T01:51:03.005Z,87.55
2023-03-04T01:52:07.746Z,87.41
2023-03-04T01:53:16.692Z,87.33
2023-03-04T01:54:20.044Z,87.16
2023-03-04T01:55:24.382Z,87.35
2023-03-04T01:56:30.404Z,87.17
2023-03-04T01:57:36.316Z,87.19
2023-03-04T01:58:38.161Z,87.56
2023-03-04T01:59:41.862Z,87.57
2023-03-04T02:00:43.688Z,87.56
2023-03-04T02:01:49.020Z,87.45
2023-03-04T02:02:53.327Z,87.49
2023-03-04T02:03:56.090Z,87.31
2023-03-04T02:04:57.886Z,87.39
2023-03-04T02:06:00.795Z,87.40
2023-03-04T02:07:04.589Z,87.37
2023-03-04T02:08:08.081Z,87.31
2023-03-04T02:09:11.801Z,87.20
2023-03-04T02:10:14.745Z,87.34
2023-03-04T02:11:17.043Z,87.59
2023-03-04T02:12:21.235Z,87.30
2023-03-04T02:13:23.270Z,87.38
2023-03-04T02:14:27.977Z,87.29
2023-03-04T02:15:30.625Z,87.18
2023-03-04T02:16:33.809Z,87.01
2023-03-04T02:17:35.624Z,87.21
2023-03-04T02:18:40.079Z,86.96
2023-03-04T02:19:45.319Z,87.10
2023-03-04T02:20:57.924Z,87.30
2023-03-04T02:21:59.987Z,87.30
2023-03-04T02:23:10.602Z,87.25
2023-03-04T02:24:15.698Z,87.34
2023-03-04T02:25:20.108Z,87.59
2023-03-04T02:26:24.969Z,87.25
2023-03-04T02:27:28.784Z,87.15
2023-03-04T02:28:31.948Z,87.23
2023-03-04T02:29:33.777Z,87.41
2023-03-04T02:30:36.706Z,87.28
2023-03-04T02:31:40.813Z,87.24
2023-03-04T02:32:43.812Z,87.32
2023-03-04T02:33:45.609Z,87.11
2023-03-04T02:34:50.346Z,87.20
2023-03-04T02:35:52.249Z,87.28
2023-03-04T02:36:55.683Z,87.17
2023-03-04T02:37:57.579Z,87.59
2023-03-04T02:39:03.754Z,87.17
2023-03-04T02:40:07.400Z,87.22
2023-03-04T02:41:13.367Z,87.15
2023-03-04T02:42:16.799Z,87.06
2023-03-04T02:43:19.876Z,87.11
2023-03-04T02:44:24.612Z,87.02
2023-03-04T02:45:40.417Z,87.29
2023-03-04T02:46:43.214Z,87.30
2023-03-04T02:47:46.049Z,87.60
2023-03-04T02:48:47.889Z,87.36
2023-03-04T02:49:50.688Z,87.54
2023-03-04T02:50:53.568Z,87.16
2023-03-04T02:52:00.913Z,87.16
2023-03-04T02:53:03.068Z,87.46
2023-03-04T02:54:06.162Z,87.26
2023-03-04T02:55:09.469Z,87.50
2023-03-04T02:56:12.279Z,87.43
2023-03-04T02:57:16.604Z,87.36
2023-03-04T02:58:22.841Z,87.47
2023-03-04T02:59:24.758Z,87.04
2023-03-04T03:00:29.038Z,87.17
2023-03-04T03:01:30.950Z,87.18
2023-03-04T03:02:33.823Z,87.24
2023-03-04T03:03:36.874Z,87.11
2023-03-04T03:04:40.227Z,87.35
2023-03-04T03:05:45.933Z,87.07
2023-03-04T03:06:48.110Z,87.13
2023-03-04T03:07:51.134Z,87.06
2023-03-04T03:08:52.982Z,87.22
2023-03-04T03:09:56.712Z,87.11
2023-03-04T03:10:58.590Z,87.14
2023-03-04T03:12:02.219Z,87.02
2023-03-04T03:13:07.182Z,86.87
2023-03-04T03:14:09.936Z,87.13
2023-03-04T03:15:12.426Z,87.00
2023-03-04T03:16:15.241Z,86.90
2023-03-04T03:17:17.077Z,86.83
2023-03-04T03:18:20.087Z,87.04
2023-03-04T03:19:23.617Z,86.88
2023-03-04T03:20:27.288Z,87.16
2023-03-04T03:21:29.122Z,86.82
2023-03-04T03:22:32.242Z,87.20
2023-03-04T03:23:34.073Z,87.20
2023-03-04T03:24:36.875Z,87.05
2023-03-04T03:25:38.981Z,87.02
2023-03-04T03:26:42.164Z,86.96
2023-03-04T03:27:44.016Z,86.71
2023-03-04T03:28:50.058Z,86.84
2023-03-04T03:29:51.954Z,86.91
2023-03-04T03:30:54.777Z,86.83
2023-03-04T03:31:57.064Z,87.02
2023-03-04T03:32:59.910Z,87.01
2023-03-04T03:34:01.816Z,86.98
2023-03-04T03:35:05.276Z,86.84
2023-03-04T03:36:09.600Z,87.00
2023-03-04T03:37:11.446Z,86.87
2023-03-04T03:38:14.333Z,86.98
2023-03-04T03:39:16.402Z,86.83
2023-03-04T03:40:19.531Z,86.71
2023-03-04T03:41:21.749Z,86.76
2023-03-04T03:42:24.595Z,86.96
2023-03-04T03:43:26.401Z,86.48
2023-03-04T03:44:30.784Z,86.75
2023-03-04T03:45:32.579Z,86.50
2023-03-04T03:46:36.001Z,86.52
2023-03-04T03:47:37.875Z,86.50
2023-03-04T03:48:40.635Z,86.68
2023-03-04T03:49:42.423Z,86.67
2023-03-04T03:50:45.562Z,86.34
2023-03-04T03:51:47.416Z,86.50
2023-03-04T03:52:50.265Z,86.55
2023-03-04T03:53:52.075Z,86.50
2023-03-04T03:54:54.851Z,86.45
2023-03-04T03:55:56.638Z,86.35
2023-03-04T03:56:59.475Z,86.34
2023-03-04T03:58:01.293Z,86.53
2023-03-04T03:59:04.199Z,86.50
2023-03-04T04:00:26.672Z,86.46
2023-03-04T04:01:28.477Z,87.01
2023-03-04T04:02:31.396Z,86.82
2023-03-04T04:03:33.231Z,86.89
2023-03-04T04:04:36.041Z,87.15
2023-03-04T04:05:37.857Z,86.91
2023-03-04T04:06:40.603Z,87.19
2023-03-04T04:07:42.577Z,87.04
2023-03-04T04:08:45.595Z,87.08
2023-03-04T04:09:48.026Z,86.96
2023-03-04T04:10:50.809Z,87.11
2023-03-04T04:11:52.613Z,87.05
2023-03-04T04:12:55.403Z,86.95
2023-03-04T04:13:57.207Z,86.85
2023-03-04T04:14:59.968Z,86.91
2023-03-04T04:16:03.245Z,86.86
2023-03-04T04:17:06.008Z,87.00
2023-03-04T04:18:09.406Z,87.07
2023-03-04T04:19:17.026Z,87.09
2023-03-04T04:20:19.832Z,87.11
2023-03-04T04:21:21.813Z,87.10
2023-03-04T04:22:24.563Z,87.19
2023-03-04T04:23:26.484Z,87.14
2023-03-04T04:24:29.334Z,87.14
2023-03-04T04:25:31.181Z,86.96
2023-03-04T04:26:34.257Z,86.99
2023-03-04T04:27:36.486Z,86.85
2023-03-04T04:28:39.613Z,87.04
2023-03-04T04:29:41.906Z,86.78
2023-03-04T04:30:44.695Z,86.94
2023-03-04T04:31:47.860Z,86.97
2023-03-04T04:32:51.033Z,87.02
2023-03-04T04:33:52.866Z,86.71
2023-03-04T04:34:55.617Z,87.12
2023-03-04T04:35:57.512Z,86.91
2023-03-04T04:37:00.236Z,86.89
2023-03-04T04:38:02.176Z,86.90
2023-03-04T04:39:05.390Z,86.83
2023-03-04T04:40:08.056Z,86.82
2023-03-04T04:41:18.302Z,86.66
2023-03-04T04:42:20.077Z,86.84
2023-03-04T04:43:22.850Z,87.07
2023-03-04T04:44:24.700Z,87.22
2023-03-04T04:45:27.650Z,87.07
2023-03-04T04:46:29.978Z,87.21
2023-03-04T04:47:34.124Z,87.09
2023-03-04T04:48:35.958Z,87.17
2023-03-04T04:49:38.842Z,87.19
2023-03-04T04:50:40.672Z,87.10
2023-03-04T04:51:43.638Z,86.94
2023-03-04T04:52:45.422Z,86.88
2023-03-04T04:53:49.672Z,86.82
2023-03-04T04:54:51.640Z,86.82
2023-03-04T04:55:54.375Z,87.04
2023-03-04T04:56:56.207Z,87.00
2023-03-04T04:57:59.077Z,86.78
2023-03-04T04:59:04.757Z,86.62
2023-03-04T05:00:08.065Z,86.67
2023-03-04T05:01:11.361Z,86.76
2023-03-04T05:02:13.160Z,86.95
2023-03-04T05:03:21.399Z,87.03
2023-03-04T05:04:24.792Z,87.27
2023-03-04T05:05:27.638Z,86.85
2023-03-04T05:06:29.415Z,86.91
2023-03-04T05:07:32.727Z,87.13
2023-03-04T05:08:34.895Z,87.08
2023-03-04T05:09:38.466Z,87.10
2023-03-04T05:10:40.300Z,87.52
2023-03-04T05:11:43.151Z,87.45
2023-03-04T05:12:45.271Z,87.54
2023-03-04T05:13:49.112Z,87.38
2023-03-04T05:14:51.092Z,87.59
2023-03-04T05:15:54.586Z,87.58
2023-03-04T05:16:56.691Z,87.64
2023-03-04T05:17:59.440Z,87.59
2023-03-04T05:19:02.567Z,87.64
2023-03-04T05:20:07.166Z,87.71
2023-03-04T05:21:09.138Z,87.62
2023-03-04T05:22:11.902Z,87.97
2023-03-04T05:23:13.728Z,87.99
2023-03-04T05:24:16.827Z,87.94
2023-03-04T05:25:18.612Z,88.01
2023-03-04T05:26:21.569Z,87.77
2023-03-04T05:27:23.500Z,87.76
2023-03-04T05:28:26.284Z,87.78
2023-03-04T05:29:28.521Z,87.82
2023-03-04T05:30:31.273Z,87.60
2023-03-04T05:31:33.210Z,87.55
2023-03-04T05:32:36.071Z,87.69
2023-03-04T05:33:38.247Z,87.88
2023-03-04T05:34:42.353Z,88.16
2023-03-04T05:35:45.079Z,87.91
2023-03-04T05:36:47.856Z,88.06
2023-03-04T05:37:49.632Z,88.09
2023-03-04T05:38:52.486Z,88.09
2023-03-04T05:39:54.245Z,88.01
2023-03-04T05:40:58.580Z,87.89
2023-03-04T05:42:00.509Z,88.14
2023-03-04T05:43:03.428Z,88.20
2023-03-04T05:44:07.229Z,88.21
2023-03-04T05:45:09.643Z,88.34
2023-03-04T05:46:14.951Z,88.25
2023-03-04T05:47:16.760Z,87.94
2023-03-04T05:48:19.653Z,87.99
2023-03-04T05:49:21.404Z,87.67
2023-03-04T05:50:25.529Z,87.90
2023-03-04T05:51:27.892Z,88.03
2023-03-04T05:52:30.763Z,87.82
2023-03-04T05:53:32.511Z,88.01
2023-03-04T05:54:35.579Z,87.71
2023-03-04T05:55:37.420Z,87.89
2023-03-04T05:56:40.141Z,87.74
2023-03-04T05:57:42.226Z,87.77
2023-03-04T05:58:47.427Z,87.77
2023-03-04T05:59:49.188Z,87.55
2023-03-04T06:00:51.984Z,87.73
2023-03-04T06:01:53.854Z,87.50
2023-03-04T06:02:56.686Z,87.75
2023-03-04T06:03:58.572Z,87.50
2023-03-04T06:05:01.435Z,87.60
2023-03-04T06:06:05.179Z,87.84
2023-03-04T06:07:08.223Z,87.73
2023-03-04T06:08:10.146Z,87.73
2023-03-04T06:09:13.147Z,87.67
2023-03-04T06:10:16.820Z,87.58
2023-03-04T06:11:19.808Z,87.54
2023-03-04T06:12:21.693Z,87.44
2023-03-04T06:13:24.853Z,87.56
2023-03-04T06:14:26.694Z,87.59
2023-03-04T06:15:29.515Z,87.49
2023-03-04T06:16:31.387Z,87.13
2023-03-04T06:17:34.383Z,87.45
2023-03-04T06:18:36.493Z,87.09
2023-03-04T06:19:39.322Z,87.21
2023-03-04T06:20:42.153Z,87.08
2023-03-04T06:21:45.334Z,86.98
2023-03-04T06:22:48.175Z,87.01
2023-03-04T06:23:50.001Z,86.94
2023-03-04T06:24:53.812Z,87.06
2023-03-04T06:25:57.100Z,87.15
2023-03-04T06:26:59.845Z,86.76
2023-03-04T06:28:01.594Z,86.81
2023-03-04T06:29:05.515Z,86.62
2023-03-04T06:30:08.625Z,86.70
2023-03-04T06:31:11.838Z,86.69
2023-03-04T06:32:14.079Z,86.51
2023-03-04T06:33:16.863Z,86.64
2023-03-04T06:34:19.418Z,86.48
2023-03-04T06:35:22.710Z,86.28
2023-03-04T06:36:24.496Z,86.27
2023-03-04T06:37:28.662Z,86.13
2023-03-04T06:38:30.507Z,86.06
2023-03-04T06:39:33.658Z,86.16
2023-03-04T06:40:35.523Z,85.95
2023-03-04T06:41:38.522Z,86.00
2023-03-04T06:42:40.896Z,86.14
2023-03-04T06:43:43.607Z,85.78
2023-03-04T06:44:45.537Z,86.07
2023-03-04T06:45:48.471Z,85.88
2023-03-04T06:46:50.276Z,85.86
2023-03-04T06:47:53.133Z,86.25
2023-03-04T06:48:55.895Z,85.74
2023-03-04T06:49:57.783Z,85.78
2023-03-04T06:51:06.477Z,85.57
2023-03-04T06:52:11.166Z,85.45
2023-03-04T06:53:15.247Z,85.33
2023-03-04T06:54:17.084Z,85.42
2023-03-04T06:55:20.006Z,85.36
2023-03-04T06:56:21.771Z,85.66
2023-03-04T06:57:24.536Z,85.56
2023-03-04T06:58:26.548Z,85.53
2023-03-04T06:59:29.308Z,85.45
2023-03-04T07:00:31.358Z,85.12
2023-03-04T07:01:34.750Z,85.60
2023-03-04T07:02:36.554Z,85.54
2023-03-04T07:03:39.421Z,85.11
2023-03-04T07:04:42.256Z,85.19
2023-03-04T07:05:44.317Z,85.21
2023-03-04T07:06:47.500Z,85.18
2023-03-04T07:07:50.075Z,85.13
2023-03-04T07:08:54.482Z,85.18
2023-03-04T07:09:57.272Z,84.95
2023-03-04T07:10:59.061Z,84.72
2023-03-04T07:12:01.906Z,84.95
2023-03-04T07:13:03.783Z,85.01
2023-03-04T07:14:06.596Z,84.87
2023-03-04T07:15:10.537Z,84.84
2023-03-04T07:16:14.392Z,85.21
2023-03-04T07:17:17.196Z,84.95
2023-03-04T07:18:18.996Z,84.56
2023-03-04T07:19:21.833Z,84.82
2023-03-04T07:20:23.661Z,84.59
2023-03-04T07:21:26.946Z,84.56
2023-03-04T07:22:29.897Z,84.75
2023-03-04T07:23:31.849Z,84.62
2023-03-04T07:24:36.156Z,84.63
2023-03-04T07:25:38.015Z,84.49
2023-03-04T07:26:40.835Z,84.42
2023-03-04T07:27:43.581Z,84.55
2023-03-04T07:28:46.868Z,84.46
2023-03-04T07:29:48.629Z,84.53
2023-03-04T07:30:51.364Z,84.13
2023-03-04T07:31:54.022Z,84.27
2023-03-04T07:32:58.650Z,84.11
2023-03-04T07:34:01.978Z,83.88
2023-03-04T07:35:05.275Z,83.56
2023-03-04T07:36:07.221Z,83.53
2023-03-04T07:37:10.012Z,83.03
2023-03-04T07:38:11.809Z,83.41
2023-03-04T07:39:14.740Z,83.54
2023-03-04T07:40:18.278Z,83.32
2023-03-04T07:41:21.831Z,82.75
2023-03-04T07:42:23.751Z,82.43
2023-03-04T07:43:34.210Z,82.38
2023-03-04T07:44:36.453Z,82.53
2023-03-04T07:45:39.222Z,82.36
2023-03-04T07:46:41.376Z,82.75
2023-03-04T07:47:44.415Z,82.59
2023-03-04T07:48:46.215Z,82.78
2023-03-04T07:49:48.994Z,82.30
2023-03-04T07:50:50.857Z,82.47
2023-03-04T07:51:53.589Z,82.42
2023-03-04T07:52:55.887Z,82.02
2023-03-04T07:54:00.823Z,81.73
2023-03-04T07:55:02.747Z,81.60
2023-03-04T07:56:08.242Z,81.46
2023-03-04T07:57:11.020Z,81.48
2023-03-04T07:58:12.849Z,82.06
2023-03-04T07:59:15.605Z,82.09
2023-03-04T08:00:36.169Z,81.29
2023-03-04T08:01:39.403Z,81.85
2023-03-04T08:02:41.535Z,81.52
2023-03-04T08:03:44.398Z,80.80
2023-03-04T08:04:46.508Z,81.49
2023-03-04T08:05:49.441Z,81.27
2023-03-04T08:06:51.273Z,81.52
2023-03-04T08:07:57.781Z,81.79
2023-03-04T08:09:02.504Z,81.58
2023-03-04T08:10:05.407Z,81.25
2023-03-04T08:11:11.740Z,81.00
2023-03-04T08:12:13.487Z,80.50
2023-03-04T08:13:16.303Z,80.85
2023-03-04T08:14:19.203Z,79.33
2023-03-04T08:15:21.062Z,79.58
2023-03-04T08:16:25.107Z,79.83
2023-03-04T08:17:29.653Z,79.66
2023-03-04T08:18:32.430Z,79.43
2023-03-04T08:19:35.217Z,79.50
2023-03-04T08:20:37.093Z,79.52
2023-03-04T08:21:39.837Z,79.42
2023-03-04T08:22:41.641Z,79.92
2023-03-04T08:23:44.824Z,79.20
2023-03-04T08:24:46.639Z,79.19
2023-03-04T08:25:49.491Z,79.62
2023-03-04T08:26:53.190Z,79.37
2023-03-04T08:27:55.986Z,79.25
2023-03-04T08:28:58.116Z,79.37
2023-03-04T08:30:01.112Z,79.48
2023-03-04T08:31:02.999Z,79.41
2023-03-04T08:32:06.237Z,79.34
2023-03-04T08:33:08.606Z,79.42
2023-03-04T08:34:12.993Z,79.43
2023-03-04T08:35:14.983Z,79.72
2023-03-04T08:36:17.810Z,79.39
2023-03-04T08:37:19.596Z,79.63
2023-03-04T08:38:22.348Z,79.20
2023-03-04T08:39:25.295Z,78.84
2023-03-04T08:40:27.265Z,79.00
2023-03-04T08:41:30.104Z,79.15
2023-03-04T08:42:34.407Z,78.91
2023-03-04T08:43:37.413Z,79.62
2023-03-04T08:44:40.136Z,79.63
2023-03-04T08:45:42.443Z,78.84
2023-03-04T08:46:45.314Z,78.40
2023-03-04T08:47:47.129Z,79.14
2023-03-04T08:48:49.918Z,78.64
2023-03-04T08:49:52.142Z,78.59
2023-03-04T08:50:55.155Z,78.82
2023-03-04T08:51:58.092Z,79.09
2023-03-04T08:52:59.962Z,78.60
2023-03-04T08:54:02.856Z,79.31
2023-03-04T08:55:05.788Z,78.55
2023-03-04T08:56:09.409Z,78.85
2023-03-04T08:57:12.128Z,78.40
2023-03-04T08:58:15.311Z,78.61
2023-03-04T08:59:18.048Z,79.21
2023-03-04T09:00:21.201Z,78.51
2023-03-04T09:01:24.167Z,78.96
2023-03-04T09:02:25.912Z,78.97
2023-03-04T09:03:29.479Z,78.85
2023-03-04T09:04:31.746Z,78.54
2023-03-04T09:05:34.526Z,78.49
2023-03-04T09:06:37.446Z,78.70
2023-03-04T09:07:39.223Z,78.36
2023-03-04T09:08:42.360Z,78.07
2023-03-04T09:09:44.138Z,78.08
2023-03-04T09:10:47.994Z,77.96
2023-03-04T09:11:49.942Z,78.05
2023-03-04T09:12:52.956Z,78.30
2023-03-04T09:13:57.085Z,78.20
2023-03-04T09:15:10.578Z,78.53
2023-03-04T09:16:15.610Z,78.35
2023-03-04T09:17:17.722Z,78.83
2023-03-04T09:18:21.962Z,78.10
2023-03-04T09:19:24.264Z,78.11
2023-03-04T09:20:27.088Z,77.84
2023-03-04T09:21:28.854Z,78.44
2023-03-04T09:22:31.705Z,77.90
2023-03-04T09:23:33.717Z,78.03
2023-03-04T09:24:36.452Z,78.34
2023-03-04T09:25:38.973Z,78.04
2023-03-04T09:26:42.090Z,78.07
2023-03-04T09:27:43.968Z,78.11
2023-03-04T09:28:46.720Z,77.99
2023-03-04T09:29:51.177Z,78.28
2023-03-04T09:30:53.004Z,78.39
2023-03-04T09:31:55.786Z,78.30
2023-03-04T09:32:57.812Z,78.16
2023-03-04T09:34:01.237Z,78.16
2023-03-04T09:35:03.084Z,78.14
2023-03-04T09:36:06.309Z,77.85
2023-03-04T09:37:08.108Z,78.28
2023-03-04T09:38:11.317Z,78.29
2023-03-04T09:39:13.589Z,77.89
2023-03-04T09:40:19.220Z,77.98
2023-03-04T09:41:25.544Z,78.35
2023-03-04T09:42:28.838Z,78.21
2023-03-04T09:43:32.211Z,78.26
2023-03-04T09:44:37.278Z,78.57
2023-03-04T09:45:45.642Z,78.50
2023-03-04T09:46:49.095Z,78.51
2023-03-04T09:47:52.868Z,78.57
2023-03-04T09:48:57.137Z,78.29
2023-03-04T09:50:01.735Z,78.84
2023-03-04T09:51:16.823Z,78.46
2023-03-04T09:52:25.046Z,78.21
2023-03-04T09:53:33.293Z,78.60
2023-03-04T09:54:59.344Z,78.91
2023-03-04T09:56:02.575Z,78.32
2023-03-04T09:57:18.139Z,78.65
2023-03-04T09:58:31.052Z,78.43
2023-03-04T09:59:40.457Z,78.76
2023-03-04T10:00:47.095Z,78.25
2023-03-04T10:01:52.056Z,78.36
2023-03-04T10:03:06.643Z,78.95
2023-03-04T10:04:14.047Z,78.93
2023-03-04T10:05:21.536Z,78.90
2023-03-04T10:06:24.072Z,78.58
2023-03-04T10:07:29.936Z,78.50
2023-03-04T10:08:39.089Z,78.68
2023-03-04T10:09:47.347Z,78.86
2023-03-04T10:10:49.443Z,78.71
2023-03-04T10:14:07.890Z,78.78
2023-03-04T10:15:58.394Z,78.79
2023-03-04T10:17:35.724Z,78.98
2023-03-04T10:18:45.720Z,78.78
2023-03-04T10:19:59.056Z,78.95
2023-03-04T10:21:02.955Z,78.98
2023-03-04T10:22:18.284Z,79.08
2023-03-04T10:23:23.050Z,78.89
2023-03-04T10:24:28.705Z,79.12
2023-03-04T10:25:32.301Z,79.39
2023-03-04T10:26:35.254Z,79.39
2023-03-04T10:27:37.134Z,79.23
2023-03-04T10:28:44.003Z,78.97
2023-03-04T10:29:48.670Z,78.60
2023-03-04T10:30:56.403Z,79.11
2023-03-04T10:31:58.316Z,79.00
2023-03-04T10:33:03.748Z,78.67
2023-03-04T10:34:06.154Z,78.88
2023-03-04T10:35:13.600Z,79.03
2023-03-04T10:36:34.618Z,79.04
2023-03-04T10:37:49.300Z,79.26
2023-03-04T10:38:54.042Z,79.26
2023-03-04T10:39:56.777Z,78.96
2023-03-04T10:40:59.511Z,79.13
2023-03-04T10:42:04.189Z,79.18
2023-03-04T10:43:08.275Z,79.30
2023-03-04T10:44:16.870Z,79.03
2023-03-04T10:45:23.137Z,79.14
2023-03-04T10:46:25.457Z,79.54
2023-03-04T10:47:29.981Z,79.72
2023-03-04T10:48:33.992Z,79.86
2023-03-04T10:49:51.185Z,79.59
2023-03-04T10:50:53.319Z,79.44
2023-03-04T10:52:04.312Z,79.59
2023-03-04T10:53:06.135Z,80.09
2023-03-04T10:54:11.097Z,79.94
2023-03-04T10:55:17.665Z,80.26
2023-03-04T10:56:37.055Z,80.10
2023-03-04T10:57:42.040Z,80.47
2023-03-04T10:58:43.870Z,79.85
2023-03-04T10:59:51.509Z,80.22
2023-03-04T11:01:02.596Z,80.11
2023-03-04T11:02:15.444Z,80.77
2023-03-04T11:03:28.726Z,80.63
2023-03-04T11:04:34.807Z,81.02
2023-03-04T11:05:37.612Z,80.87
2023-03-04T11:06:41.081Z,80.94
2023-03-04T11:07:55.597Z,81.31
2023-03-04T11:08:59.472Z,80.77
2023-03-04T11:10:15.943Z,80.93
2023-03-04T11:11:25.908Z,81.26
2023-03-04T11:12:34.582Z,81.07
2023-03-04T11:13:36.638Z,81.51
2023-03-04T11:14:44.273Z,80.96
2023-03-04T11:15:52.119Z,81.20
2023-03-04T11:17:10.193Z,81.59
2023-03-04T11:18:13.961Z,81.35
2023-03-04T11:19:17.865Z,81.61
2023-03-04T11:20:29.946Z,82.00
2023-03-04T11:21:35.547Z,81.66
2023-03-04T11:22:38.737Z,81.92
2023-03-04T11:23:44.555Z,81.87
2023-03-04T11:24:50.926Z,81.78
2023-03-04T11:25:57.858Z,81.61
2023-03-04T11:27:04.759Z,81.79
2023-03-04T11:28:13.734Z,82.00
2023-03-04T11:29:18.983Z,82.16
2023-03-04T11:30:30.916Z,81.97
2023-03-04T11:31:37.605Z,82.17
2023-03-04T11:32:43.296Z,82.47
2023-03-04T11:33:50.775Z,82.79
2023-03-04T11:34:56.483Z,82.57
2023-03-04T11:36:09.159Z,82.81
2023-03-04T11:37:18.149Z,82.26
2023-03-04T11:38:21.572Z,82.66
2023-03-04T11:39:33.918Z,82.71
2023-03-04T11:40:40.360Z,82.91
2023-03-04T11:41:49.457Z,83.07
2023-03-04T11:43:01.702Z,82.95
2023-03-04T11:44:08.811Z,82.87
2023-03-04T11:45:27.534Z,82.81
2023-03-04T11:47:07.756Z,82.71
2023-03-04T11:48:13.270Z,82.69
2023-03-04T11:49:42.052Z,83.21
2023-03-04T11:50:50.949Z,83.32
2023-03-04T11:52:02.925Z,82.81
2023-03-04T11:53:41.401Z,82.83
2023-03-04T11:54:49.916Z,82.92
2023-03-04T11:55:59.850Z,83.35
2023-03-04T11:57:06.610Z,83.09
2023-03-04T11:58:22.107Z,82.80
2023-03-04T11:59:46.627Z,83.04
2023-03-04T12:00:53.182Z,82.95
2023-03-04T12:02:02.967Z,82.76
2023-03-04T12:03:16.188Z,83.17
2023-03-04T12:04:41.428Z,83.22
2023-03-04T12:05:54.103Z,83.25
2023-03-04T12:07:09.096Z,83.83
2023-03-04T12:08:54.544Z,83.57
2023-03-04T12:10:03.655Z,83.71
2023-03-04T12:11:09.229Z,83.32
2023-03-04T12:12:26.489Z,83.48
2023-03-04T12:14:01.507Z,84.03
2023-03-04T12:15:13.541Z,83.85
2023-03-04T12:16:29.281Z,83.69
2023-03-04T12:17:46.964Z,83.82
2023-03-04T12:19:05.235Z,83.58
2023-03-04T12:20:21.808Z,83.72
2023-03-04T12:21:36.417Z,83.78
2023-03-04T12:22:44.331Z,83.55
2023-03-04T12:24:02.447Z,83.54
2023-03-04T12:25:18.123Z,83.70
2023-03-04T12:26:27.143Z,84.03
2023-03-04T12:27:33.228Z,83.81
2023-03-04T12:28:51.966Z,83.65
2023-03-04T12:29:58.454Z,83.78
2023-03-04T12:31:12.729Z,83.68
2023-03-04T12:32:19.495Z,83.38
2023-03-04T12:33:28.422Z,83.76
2023-03-04T12:34:46.099Z,83.73
2023-03-04T12:35:54.343Z,83.19
2023-03-04T12:37:05.168Z,82.89
2023-03-04T12:38:23.963Z,82.88
2023-03-04T12:39:31.316Z,82.65
2023-03-04T12:40:39.484Z,83.36
2023-03-04T12:41:44.847Z,82.79
2023-03-04T12:42:59.634Z,82.63
2023-03-04T12:44:07.938Z,82.69
2023-03-04T12:45:18.498Z,83.00
2023-03-04T12:46:30.869Z,82.64
2023-03-04T12:47:40.969Z,83.12
2023-03-04T12:48:45.258Z,82.89
2023-03-04T12:49:59.337Z,82.05
2023-03-04T12:51:11.509Z,82.61
2023-03-04T12:52:17.774Z,82.38
2023-03-04T12:53:27.352Z,82.38
2023-03-04T12:54:32.779Z,82.06
2023-03-04T12:55:38.342Z,82.15
2023-03-04T12:56:43.977Z,82.13
2023-03-04T12:57:47.144Z,82.20
2023-03-04T12:58:49.216Z,81.99
2023-03-04T12:59:57.450Z,81.88
2023-03-04T13:01:04.675Z,81.54
2023-03-04T13:02:33.575Z,81.48
2023-03-04T13:03:43.097Z,80.99
2023-03-04T13:04:53.461Z,81.20
2023-03-04T13:06:12.649Z,80.88
2023-03-04T13:07:18.959Z,81.23
2023-03-04T13:08:31.279Z,81.14
2023-03-04T13:09:34.335Z,81.32
2023-03-04T13:10:37.272Z,81.18
2023-03-04T13:12:03.692Z,81.15
2023-03-04T13:13:06.754Z,80.62
2023-03-04T13:14:23.613Z,80.94
2023-03-04T13:15:32.113Z,80.82
2023-03-04T13:16:37.030Z,81.00
2023-03-04T13:17:43.657Z,81.30
2023-03-04T13:18:45.702Z,81.19
2023-03-04T13:19:53.790Z,81.13
2023-03-04T13:21:07.824Z,81.14
2023-03-04T13:22:28.144Z,80.94
2023-03-04T13:23:32.802Z,81.15
2023-03-04T13:24:45.755Z,81.07
2023-03-04T13:25:50.594Z,81.02
2023-03-04T13:26:52.533Z,80.64
2023-03-04T13:28:13.350Z,80.81
2023-03-04T13:29:36.934Z,80.91
2023-03-04T13:30:44.195Z,80.83
2023-03-04T13:32:01.134Z,80.88
2023-03-04T13:33:49.490Z,80.85
2023-03-04T13:34:54.018Z,80.67
2023-03-04T13:36:01.989Z,80.91
2023-03-04T13:37:29.381Z,80.84
2023-03-04T13:38:36.294Z,80.91
2023-03-04T13:39:39.056Z,81.22
2023-03-04T13:40:40.852Z,81.20
2023-03-04T13:41:48.510Z,81.01
2023-03-04T13:42:51.692Z,81.06
2023-03-04T13:43:54.171Z,81.27
2023-03-04T13:44:59.942Z,81.78
2023-03-04T13:46:30.135Z,81.57
2023-03-04T13:47:46.791Z,81.63
2023-03-04T13:49:01.514Z,81.86
2023-03-04T13:50:31.732Z,81.85
2023-03-04T13:51:37.007Z,82.16
2023-03-04T13:52:41.641Z,81.79
2023-03-04T13:53:47.192Z,82.60
2023-03-04T13:54:49.011Z,82.05
2023-03-04T13:56:26.909Z,83.01
2023-03-04T13:57:29.680Z,83.18
2023-03-04T13:58:31.717Z,82.88
2023-03-04T13:59:41.902Z,83.23
2023-03-04T14:00:49.935Z,82.88
2023-03-04T14:01:57.709Z,82.66